Time;durP1;ratioP1;P1;durP2;ratioP2;P2;SDS_P1;SDS_P2;PMS_P1;PMS_P2;Temp;Humidity;BMP_temperature;BMP_pressure;BME280_temperature;BME280_humidity;BME280_pressure;Samples;Min_cycle;Max_cycle;Signal;HPM_P1;HPM_P2
2022/05/02 00:00:17;;;;;;;15.97;14.40;;;10.00;99.90;;;;;;4900306;29;20213;-81
2022/05/02 00:02:44;;;;;;;15.37;13.90;;;9.90;99.90;;;;;;4900721;29;20470;-82
2022/05/02 00:05:11;;;;;;;16.27;14.70;;;9.80;99.90;;;;;;4900810;29;20532;-81
2022/05/02 00:07:38;;;;;;;16.02;14.52;;;9.70;99.90;;;;;;4900941;29;20532;-81
2022/05/02 00:10:08;;;;;;;14.50;13.10;;;9.60;99.90;;;;;;4899888;29;20220;-83
2022/05/02 00:12:35;;;;;;;15.30;13.80;;;9.70;99.90;;;;;;4902967;29;20459;-81
2022/05/02 00:15:02;;;;;;;18.10;16.50;;;9.70;99.90;;;;;;4911330;29;20544;-80
2022/05/02 00:20:13;;;;;;;17.58;15.88;;;9.70;99.90;;;;;;4900257;29;20198;-81
2022/05/02 00:22:40;;;;;;;15.85;14.23;;;9.70;99.90;;;;;;4900141;29;20214;-81
2022/05/02 00:25:09;;;;;;;17.42;15.82;;;9.70;99.90;;;;;;4900203;29;20228;-81
2022/05/02 00:27:38;;;;;;;17.23;15.63;;;9.70;99.90;;;;;;4900032;29;20589;-79
2022/05/02 00:30:06;;;;;;;17.90;16.17;;;9.60;99.90;;;;;;4900378;29;20216;-81
2022/05/02 00:32:33;;;;;;;17.67;15.43;;;9.60;99.90;;;;;;4900457;29;20240;-80
2022/05/02 00:35:00;;;;;;;16.90;14.67;;;9.60;99.90;;;;;;4900238;29;20233;-81
2022/05/02 00:37:26;;;;;;;15.50;14.07;;;9.60;99.90;;;;;;4913941;29;20461;-81
2022/05/02 00:39:53;;;;;;;15.80;14.20;;;9.60;99.90;;;;;;4917532;29;20215;-81
2022/05/02 00:42:21;;;;;;;14.80;13.30;;;9.60;99.90;;;;;;4899845;29;20703;-81
2022/05/02 00:44:48;;;;;;;17.42;15.73;;;9.60;99.90;;;;;;4902933;29;20507;-81
2022/05/02 00:47:15;;;;;;;16.88;14.98;;;9.50;99.90;;;;;;4903892;29;20223;-80
2022/05/02 00:49:43;;;;;;;16.27;14.57;;;9.50;99.90;;;;;;4903731;29;20219;-80
2022/05/02 00:52:10;;;;;;;16.67;15.00;;;9.50;99.90;;;;;;4922553;29;20263;-81
2022/05/02 00:54:37;;;;;;;17.05;15.43;;;9.50;99.90;;;;;;4923042;29;20254;-81
2022/05/02 00:57:07;;;;;;;17.38;15.57;;;9.40;99.90;;;;;;4923013;29;20212;-81
2022/05/02 00:59:37;;;;;;;16.15;14.65;;;9.30;99.90;;;;;;4922817;29;20841;-81
2022/05/02 01:02:04;;;;;;;17.08;15.27;;;9.30;99.90;;;;;;4920369;29;20212;-81
2022/05/02 01:04:31;;;;;;;15.13;13.52;;;9.30;99.90;;;;;;4924052;29;20235;-79
2022/05/02 01:07:11;;;;;;;15.98;14.38;;;9.30;99.90;;;;;;4911113;29;20208;-81
2022/05/02 01:09:39;;;;;;;16.73;15.00;;;9.30;99.90;;;;;;4913043;29;20196;-82
2022/05/02 01:12:08;;;;;;;17.30;15.55;;;9.30;99.90;;;;;;4914730;29;20208;-81
2022/05/02 01:14:36;;;;;;;17.20;15.60;;;9.20;99.90;;;;;;4908613;29;20236;-83
2022/05/02 01:17:04;;;;;;;17.23;14.60;;;9.20;99.90;;;;;;4922194;29;20214;-80
2022/05/02 01:19:31;;;;;;;16.50;14.80;;;9.20;99.90;;;;;;4921919;29;20206;-81
2022/05/02 01:21:59;;;;;;;15.68;13.95;;;9.20;99.90;;;;;;4922304;29;20453;-81
2022/05/02 01:24:34;;;;;;;14.88;13.15;;;9.20;99.90;;;;;;4922267;29;20238;-82
2022/05/02 01:27:02;;;;;;;16.05;14.10;;;9.20;99.90;;;;;;4922546;29;20215;-81
2022/05/02 01:29:30;;;;;;;17.40;15.52;;;9.20;99.90;;;;;;4906030;29;20232;-81
2022/05/02 01:31:57;;;;;;;16.75;15.05;;;9.20;99.90;;;;;;4903166;29;20215;-80
2022/05/02 01:34:23;;;;;;;14.90;13.38;;;9.20;99.90;;;;;;4918825;29;20236;-80
2022/05/02 01:36:50;;;;;;;16.48;14.82;;;9.10;99.90;;;;;;4921965;29;20224;-81
2022/05/02 01:39:18;;;;;;;15.75;14.20;;;9.10;99.90;;;;;;4907297;29;20212;-80
2022/05/02 01:41:46;;;;;;;16.88;15.18;;;9.10;99.90;;;;;;4902994;29;20223;-81
2022/05/02 01:44:12;;;;;;;17.58;15.77;;;9.10;99.90;;;;;;4903374;29;20786;-81
2022/05/02 01:46:39;;;;;;;17.77;15.98;;;9.20;99.90;;;;;;4903657;29;20199;-80
2022/05/02 01:49:07;;;;;;;17.83;16.23;;;9.20;99.90;;;;;;4913737;29;20207;-80
2022/05/02 01:51:34;;;;;;;18.35;16.40;;;9.20;99.90;;;;;;4920992;29;20212;-80
2022/05/02 01:54:00;;;;;;;20.58;17.80;;;9.10;99.90;;;;;;4920372;29;20234;-81
2022/05/02 01:56:28;;;;;;;18.45;16.67;;;8.90;99.90;;;;;;4920489;29;20207;-81
2022/05/02 01:58:56;;;;;;;16.98;15.02;;;8.90;99.90;;;;;;4915389;29;20675;-80
2022/05/02 02:01:22;;;;;;;20.15;17.00;;;9.00;99.90;;;;;;4920615;29;20214;-81
2022/05/02 02:03:50;;;;;;;19.98;18.08;;;9.00;99.90;;;;;;4920260;29;20234;-81
2022/05/02 02:06:16;;;;;;;17.85;16.05;;;9.00;99.90;;;;;;4920435;29;20222;-81
2022/05/02 02:08:43;;;;;;;18.80;16.87;;;9.10;99.90;;;;;;4920027;29;20208;-81
2022/05/02 02:11:11;;;;;;;19.20;17.30;;;9.20;99.90;;;;;;4920376;29;20227;-81
2022/05/02 02:13:40;;;;;;;17.10;15.57;;;9.20;99.90;;;;;;4909316;29;20232;-81
2022/05/02 02:16:09;;;;;;;19.05;16.70;;;9.20;99.90;;;;;;4901613;29;20738;-80
2022/05/02 02:18:38;;;;;;;18.05;16.17;;;9.20;99.90;;;;;;4911796;29;20207;-81
2022/05/02 02:21:06;;;;;;;18.70;16.85;;;9.30;99.90;;;;;;4920099;29;20208;-81
2022/05/02 02:23:33;;;;;;;19.20;17.40;;;9.30;99.90;;;;;;4918790;29;20229;-80
2022/05/02 02:26:00;;;;;;;16.92;15.25;;;9.30;99.90;;;;;;4920029;29;20232;-81
2022/05/02 02:28:27;;;;;;;17.67;15.88;;;9.40;99.90;;;;;;4919434;29;20215;-81
2022/05/02 02:30:55;;;;;;;18.45;16.52;;;9.40;99.90;;;;;;4921578;29;20207;-83
2022/05/02 02:33:22;;;;;;;18.00;16.20;;;9.50;99.90;;;;;;4921223;29;20226;-82
2022/05/02 02:35:49;;;;;;;17.77;15.98;;;9.50;99.90;;;;;;4921963;29;20208;-83
2022/05/02 02:38:16;;;;;;;16.95;15.15;;;9.50;99.90;;;;;;4920876;29;20256;-82
2022/05/02 02:40:43;;;;;;;17.77;15.90;;;9.50;99.90;;;;;;4922962;29;20220;-83
2022/05/02 02:43:10;;;;;;;16.52;14.70;;;9.50;99.90;;;;;;4920523;29;20208;-83
2022/05/02 02:45:38;;;;;;;16.42;14.82;;;9.50;99.90;;;;;;4902538;29;20240;-83
2022/05/02 02:48:07;;;;;;;16.20;13.98;;;9.50;99.90;;;;;;4905019;29;20217;-82
2022/05/02 02:50:33;;;;;;;18.55;16.50;;;9.40;99.90;;;;;;4920382;29;20220;-83
2022/05/02 02:53:00;;;;;;;18.70;16.70;;;9.20;99.90;;;;;;4919499;29;20681;-82
2022/05/02 02:55:27;;;;;;;19.20;17.40;;;9.20;99.90;;;;;;4921393;29;20332;-82
2022/05/02 02:57:54;;;;;;;18.23;16.48;;;9.30;99.90;;;;;;4918906;29;20219;-83
2022/05/02 03:00:21;;;;;;;18.20;16.50;;;9.30;99.90;;;;;;4920641;29;20207;-83
2022/05/02 03:02:49;;;;;;;19.58;17.83;;;9.40;99.90;;;;;;4916699;29;20212;-83
2022/05/02 03:08:11;;;;;;;18.65;16.95;;;9.30;99.90;;;;;;4884116;29;20201;-83
2022/05/02 03:10:38;;;;;;;18.80;17.05;;;9.20;99.90;;;;;;4920585;29;20218;-82
2022/05/02 03:13:05;;;;;;;19.15;17.15;;;9.10;99.90;;;;;;4919868;29;20700;-83
2022/05/02 03:15:33;;;;;;;20.73;17.42;;;8.90;99.90;;;;;;4921129;29;20215;-83
2022/05/02 03:17:59;;;;;;;19.50;17.40;;;8.80;99.90;;;;;;4920961;29;20211;-83
2022/05/02 03:20:28;;;;;;;21.05;18.92;;;9.00;99.90;;;;;;4919931;29;20623;-82
2022/05/02 03:22:54;;;;;;;19.80;17.85;;;9.10;99.90;;;;;;4917214;29;20213;-82
2022/05/02 03:25:21;;;;;;;19.48;17.48;;;9.10;99.90;;;;;;4901705;29;20238;-83
2022/05/02 03:27:48;;;;;;;19.25;17.55;;;9.20;99.90;;;;;;4903720;29;20212;-82
2022/05/02 03:30:15;;;;;;;18.95;17.15;;;9.30;99.90;;;;;;4920142;29;20211;-83
2022/05/02 03:32:42;;;;;;;17.90;16.10;;;9.30;99.90;;;;;;4916323;29;20204;-83
2022/05/02 03:35:09;;;;;;;20.48;18.38;;;9.40;99.90;;;;;;4920066;29;20602;-83
2022/05/02 03:37:40;;;;;;;19.10;16.80;;;9.40;99.90;;;;;;4919621;29;20203;-82
2022/05/02 03:40:08;;;;;;;19.20;17.23;;;9.40;99.90;;;;;;4919895;29;20211;-83
2022/05/02 03:42:37;;;;;;;19.65;17.70;;;9.50;99.90;;;;;;4916383;29;20215;-83
2022/05/02 03:45:04;;;;;;;20.30;18.27;;;9.60;99.90;;;;;;4901131;29;20248;-83
2022/05/02 03:47:31;;;;;;;20.88;18.88;;;9.70;99.90;;;;;;4900692;29;20216;-83
2022/05/02 03:49:58;;;;;;;18.08;16.30;;;9.70;99.90;;;;;;4901176;29;20305;-83
2022/05/02 03:52:25;;;;;;;20.50;17.97;;;9.70;99.90;;;;;;4902496;29;20209;-83
2022/05/02 03:54:53;;;;;;;17.77;15.90;;;9.80;99.90;;;;;;4901107;29;20474;-82
2022/05/02 03:57:19;;;;;;;17.70;15.60;;;9.80;99.90;;;;;;4917212;29;20215;-83
2022/05/02 03:59:47;;;;;;;17.35;15.52;;;9.60;99.90;;;;;;4919748;29;20695;-83
2022/05/02 04:02:13;;;;;;;18.55;16.55;;;9.70;99.90;;;;;;4904224;29;20280;-83
2022/05/02 04:04:40;;;;;;;17.67;15.87;;;9.80;99.90;;;;;;4900661;29;20236;-83
2022/05/02 04:07:07;;;;;;;18.33;16.43;;;9.80;99.90;;;;;;4913896;29;20459;-83
2022/05/02 04:09:34;;;;;;;19.25;17.40;;;9.90;99.90;;;;;;4919751;29;20460;-83
2022/05/02 04:12:02;;;;;;;18.02;16.13;;;9.90;99.90;;;;;;4918640;29;20211;-83
2022/05/02 04:14:29;;;;;;;18.10;16.40;;;10.00;99.90;;;;;;4920030;29;20231;-83
2022/05/02 04:16:55;;;;;;;17.48;15.63;;;10.00;99.90;;;;;;4919216;29;20666;-83
2022/05/02 04:19:22;;;;;;;19.30;17.07;;;10.10;99.90;;;;;;4919000;29;20218;-83
2022/05/02 04:21:49;;;;;;;18.48;16.67;;;10.20;99.90;;;;;;4918698;29;20460;-83
2022/05/02 04:24:15;;;;;;;19.50;17.42;;;10.20;99.90;;;;;;4914685;29;20233;-83
2022/05/02 04:26:42;;;;;;;16.40;14.83;;;10.20;99.90;;;;;;4900031;29;20709;-83
2022/05/02 04:29:10;;;;;;;16.57;14.97;;;10.20;99.90;;;;;;4901020;29;20453;-82
2022/05/02 04:31:37;;;;;;;18.53;16.83;;;10.30;99.90;;;;;;4900553;29;20458;-83
2022/05/02 04:34:04;;;;;;;17.48;15.85;;;10.40;99.90;;;;;;4901052;29;20843;-83
2022/05/02 04:36:30;;;;;;;16.90;15.30;;;10.50;99.90;;;;;;4900471;29;20205;-83
2022/05/02 04:38:57;;;;;;;17.87;16.13;;;10.50;99.90;;;;;;4914757;29;20470;-83
2022/05/02 04:41:24;;;;;;;17.00;15.30;;;10.50;99.90;;;;;;4919135;29;20463;-83
2022/05/02 04:43:52;;;;;;;14.83;13.37;;;10.60;99.90;;;;;;4905962;29;20501;-83
2022/05/02 04:46:21;;;;;;;16.80;15.20;;;10.60;99.90;;;;;;4900193;29;20537;-83
2022/05/02 04:48:48;;;;;;;16.33;14.60;;;10.50;99.90;;;;;;4901245;29;20466;-83
2022/05/02 04:51:14;;;;;;;16.33;14.73;;;10.50;99.90;;;;;;4900537;29;20467;-83
2022/05/02 04:53:41;;;;;;;18.47;16.70;;;10.60;99.90;;;;;;4910564;29;20487;-83
2022/05/02 04:56:08;;;;;;;15.47;14.07;;;10.70;99.90;;;;;;4919493;29;20458;-83
2022/05/02 04:58:35;;;;;;;17.87;15.93;;;10.80;99.90;;;;;;4912345;29;20488;-82
2022/05/02 05:01:01;;;;;;;17.37;15.57;;;10.80;99.90;;;;;;4903671;29;20463;-83
2022/05/02 05:03:30;;;;;;;16.03;14.73;;;10.80;99.90;;;;;;4905209;29;20564;-83
2022/05/02 05:05:57;;;;;;;18.48;16.73;;;10.80;99.90;;;;;;4919408;29;20492;-83
2022/05/02 05:08:23;;;;;;;17.20;14.77;;;10.80;99.90;;;;;;4917502;29;20259;-83
2022/05/02 05:10:58;;;;;;;16.90;15.30;;;10.80;99.90;;;;;;4908590;29;20458;-83
2022/05/02 05:13:34;;;;;;;16.77;15.13;;;10.80;99.90;;;;;;4900955;29;20238;-83
2022/05/02 05:16:31;;;;;;;19.13;17.30;;;10.80;99.90;;;;;;4900296;29;20484;-83
2022/05/02 05:19:24;;;;;;;18.03;16.23;;;10.80;99.90;;;;;;4900696;29;20508;-82
2022/05/02 05:22:03;;;;;;;18.13;16.42;;;10.80;99.90;;;;;;4900032;29;20462;-83
2022/05/02 05:25:07;;;;;;;19.13;17.20;;;10.80;99.90;;;;;;4901253;29;20278;-83
2022/05/02 05:27:48;;;;;;;20.10;18.13;;;10.80;99.90;;;;;;4907452;29;20224;-83
2022/05/02 05:30:20;;;;;;;22.30;19.83;;;10.80;99.90;;;;;;4920714;29;20528;-83
2022/05/02 05:32:57;;;;;;;19.50;17.40;;;10.80;99.90;;;;;;4911754;29;20272;-83
2022/05/02 05:35:32;;;;;;;19.47;17.60;;;10.90;99.90;;;;;;4903739;29;20477;-83
2022/05/02 05:38:07;;;;;;;20.60;18.70;;;10.80;99.90;;;;;;4903370;29;20469;-83
2022/05/02 05:40:37;;;;;;;20.30;18.30;;;10.90;99.90;;;;;;4920006;29;20664;-83
2022/05/02 05:43:12;;;;;;;24.20;18.37;;;10.90;99.90;;;;;;4921313;29;20492;-83
2022/05/02 05:45:59;;;;;;;23.37;20.93;;;11.00;99.90;;;;;;4922810;29;20500;-83
2022/05/02 05:48:39;;;;;;;21.63;19.60;;;11.00;99.90;;;;;;4908772;29;20469;-83
2022/05/02 05:51:24;;;;;;;20.70;18.67;;;11.00;99.90;;;;;;4904060;29;20497;-83
2022/05/02 05:54:03;;;;;;;23.30;20.80;;;11.10;99.90;;;;;;4906281;29;20482;-83
2022/05/02 05:56:45;;;;;;;23.70;21.40;;;11.20;99.90;;;;;;4911833;29;20472;-82
2022/05/02 05:59:22;;;;;;;24.83;22.37;;;11.20;99.90;;;;;;4906815;29;20469;-83
2022/05/02 06:02:17;;;;;;;21.77;19.57;;;11.30;99.90;;;;;;4903135;29;20447;-83
2022/05/02 06:04:44;;;;;;;21.27;19.03;;;11.30;99.90;;;;;;4903449;29;20486;-83
2022/05/02 06:07:12;;;;;;;22.20;19.77;;;11.40;99.90;;;;;;4903542;29;20494;-83
2022/05/02 06:09:44;;;;;;;22.70;20.40;;;11.50;99.90;;;;;;4905910;29;20466;-83
2022/05/02 06:12:13;;;;;;;27.37;21.73;;;11.60;99.90;;;;;;4915338;29;20466;-83
2022/05/02 06:20:12;;;;;;;20.90;18.80;;;11.80;99.90;;;;;;4910369;29;20449;-84
2022/05/02 06:22:42;;;;;;;24.43;21.93;;;11.90;99.90;;;;;;4912044;29;20450;-83
2022/05/02 06:25:09;;;;;;;24.80;22.50;;;11.90;99.90;;;;;;4910898;29;20997;-84
2022/05/02 06:27:36;;;;;;;22.63;20.47;;;12.00;99.90;;;;;;4910003;29;20462;-84
2022/05/02 06:30:05;;;;;;;23.10;20.80;;;12.00;99.90;;;;;;4908874;29;20485;-83
2022/05/02 06:32:32;;;;;;;21.77;19.47;;;12.10;99.90;;;;;;4909704;29;20464;-81
2022/05/02 06:34:59;;;;;;;24.30;19.50;;;12.10;99.90;;;;;;4911074;29;20471;-82
2022/05/02 06:37:32;;;;;;;20.80;18.70;;;12.20;99.90;;;;;;4909096;29;21019;-81
2022/05/02 06:40:07;;;;;;;21.43;19.33;;;12.10;99.90;;;;;;4912948;29;20463;-83
2022/05/02 06:42:38;;;;;;;23.20;21.00;;;12.20;99.90;;;;;;4903183;29;20462;-84
2022/05/02 06:45:23;;;;;;;21.47;19.27;;;12.30;99.90;;;;;;4911005;29;20487;-84
2022/05/02 06:48:17;;;;;;;22.87;20.67;;;12.20;99.90;;;;;;4905011;29;20457;-84
2022/05/02 06:50:47;;;;;;;20.30;18.30;;;12.20;99.90;;;;;;4901207;29;20454;-81
2022/05/02 06:53:35;;;;;;;22.77;20.70;;;12.30;99.90;;;;;;4901992;29;20997;-81
2022/05/02 06:56:10;;;;;;;20.90;18.80;;;12.40;99.90;;;;;;4918488;29;20457;-81
2022/05/02 06:58:49;;;;;;;20.30;18.47;;;12.40;99.90;;;;;;4921211;29;20453;-80
2022/05/02 07:01:29;;;;;;;20.70;18.60;;;12.50;99.90;;;;;;4905018;29;20515;-81
2022/05/02 07:04:16;;;;;;;21.60;19.47;;;12.70;99.90;;;;;;4904505;29;20473;-84
2022/05/02 07:06:56;;;;;;;22.73;20.53;;;12.80;99.90;;;;;;4905493;29;20498;-85
2022/05/02 07:09:33;;;;;;;22.40;20.20;;;12.70;99.90;;;;;;4904258;29;20468;-86
2022/05/02 07:12:10;;;;;;;20.00;18.00;;;12.80;99.90;;;;;;4905579;29;20520;-85
2022/05/02 07:14:52;;;;;;;22.00;19.60;;;12.90;99.90;;;;;;4907158;29;20489;-86
2022/05/02 07:17:32;;;;;;;21.73;19.70;;;13.00;99.90;;;;;;4923424;29;20462;-86
2022/05/02 07:20:05;;;;;;;20.90;18.80;;;13.10;99.90;;;;;;4919291;29;20470;-85
2022/05/02 07:22:44;;;;;;;21.07;19.17;;;13.20;99.90;;;;;;4904587;29;20463;-86
2022/05/02 07:25:23;;;;;;;20.43;18.53;;;13.30;99.90;;;;;;4908044;29;20482;-86
2022/05/02 07:28:16;;;;;;;20.33;18.47;;;13.50;99.90;;;;;;4902143;29;20458;-87
2022/05/02 07:30:59;;;;;;;18.23;16.63;;;13.50;99.90;;;;;;4900558;29;20459;-86
2022/05/02 07:37:05;;;;;;;21.13;19.07;;;13.50;99.90;;;;;;4829502;29;20465;-86
2022/05/02 07:39:58;;;;;;;20.70;18.70;;;13.70;99.90;;;;;;4854684;29;20860;-86
2022/05/02 07:43:23;;;;;;;21.63;19.57;;;13.80;99.90;;;;;;4907814;29;20453;-84
2022/05/02 07:45:57;;;;;;;21.53;19.33;;;14.00;99.90;;;;;;4876800;29;20992;-86
2022/05/02 07:49:07;;;;;;;20.97;18.73;;;14.10;99.90;;;;;;4905188;29;20447;-86
2022/05/02 07:57:55;;;;;;;20.20;18.10;;;14.40;99.90;;;;;;4884404;29;20531;-84
2022/05/02 08:03:53;;;;;;;20.43;18.50;;;14.40;99.90;;;;;;4866898;29;20485;-84
2022/05/02 08:06:34;;;;;;;22.13;20.03;;;14.50;99.90;;;;;;4904209;29;20502;-84
2022/05/02 08:09:07;;;;;;;21.30;19.30;;;14.70;99.90;;;;;;4902816;29;20462;-85
2022/05/02 08:11:43;;;;;;;18.17;16.43;;;14.80;99.90;;;;;;4902588;29;20447;-86
2022/05/02 08:14:16;;;;;;;18.37;16.60;;;15.00;99.90;;;;;;4913533;29;20482;-86
2022/05/02 08:16:57;;;;;;;20.93;18.67;;;15.20;99.90;;;;;;4904336;29;20451;-85
2022/05/02 08:19:36;;;;;;;19.57;17.77;;;15.40;99.90;;;;;;4916594;29;20450;-86
2022/05/02 08:27:58;;;;;;;18.17;16.53;;;16.00;99.90;;;;;;4903698;29;21033;-86
2022/05/02 08:30:26;;;;;;;16.77;15.30;;;16.20;99.90;;;;;;4903735;29;20455;-87
2022/05/02 08:33:00;;;;;;;16.67;15.10;;;16.30;99.90;;;;;;4913324;29;20467;-84
2022/05/02 08:35:40;;;;;;;17.17;15.47;;;16.40;99.60;;;;;;4916034;29;20483;-84
2022/05/02 08:38:20;;;;;;;15.40;14.10;;;16.40;99.00;;;;;;4916165;29;20465;-83
2022/05/02 08:41:27;;;;;;;15.57;14.17;;;16.50;98.90;;;;;;4910812;29;20453;-86
2022/05/02 08:44:29;;;;;;;15.33;13.83;;;16.70;98.10;;;;;;4927525;29;20477;-82
2022/05/02 08:47:41;;;;;;;17.17;15.67;;;16.90;98.00;;;;;;4917176;29;20495;-83
2022/05/02 08:50:22;;;;;;;13.43;12.30;;;17.10;97.50;;;;;;4901962;29;20469;-80
2022/05/02 08:53:28;;;;;;;14.07;12.73;;;17.30;98.20;;;;;;4925043;29;20456;-84
2022/05/02 08:56:32;;;;;;;12.53;11.53;;;17.60;95.00;;;;;;4927244;29;20450;-84
2022/05/02 08:59:32;;;;;;;12.80;11.70;;;17.70;94.40;;;;;;4915721;29;20464;-82
2022/05/02 09:02:36;;;;;;;14.53;13.13;;;17.90;94.60;;;;;;4915100;29;20535;-82
2022/05/02 09:05:40;;;;;;;12.87;11.67;;;18.00;94.10;;;;;;4917711;29;20536;-82
2022/05/02 09:08:53;;;;;;;13.20;12.10;;;17.90;93.60;;;;;;4909068;29;20517;-82
2022/05/02 09:11:40;;;;;;;12.17;11.20;;;17.90;93.40;;;;;;4925536;29;20450;-82
2022/05/02 09:14:59;;;;;;;13.10;11.97;;;17.90;93.10;;;;;;4923665;29;20461;-83
2022/05/02 09:18:09;;;;;;;14.27;12.87;;;17.50;92.70;;;;;;4920168;29;20461;-82
2022/05/02 09:20:54;;;;;;;12.30;11.27;;;17.60;93.70;;;;;;4912409;29;20478;-82
2022/05/02 09:24:02;;;;;;;12.63;11.60;;;17.60;94.00;;;;;;4939208;29;20453;-82
2022/05/02 09:26:57;;;;;;;14.07;12.30;;;17.30;92.60;;;;;;4882211;29;20524;-82
2022/05/02 09:30:05;;;;;;;12.73;11.70;;;17.50;94.20;;;;;;4920395;29;20437;-82
2022/05/02 09:32:46;;;;;;;11.27;10.27;;;17.40;93.30;;;;;;4909963;29;20492;-81
2022/05/02 09:35:18;;;;;;;10.10;9.37;;;17.50;92.70;;;;;;4928403;29;20479;-81
2022/05/02 09:37:58;;;;;;;10.97;9.97;;;17.50;92.20;;;;;;4937916;29;20469;-81
2022/05/02 09:40:35;;;;;;;11.17;10.07;;;17.60;92.60;;;;;;4930164;29;20489;-80
2022/05/02 09:43:18;;;;;;;11.10;10.10;;;17.70;92.60;;;;;;4921425;29;20469;-81
2022/05/02 09:52:03;;;;;;;13.30;12.20;;;18.20;91.70;;;;;;4937109;29;20447;-81
2022/05/02 09:57:42;;;;;;;11.43;10.57;;;18.50;92.10;;;;;;4933018;29;20481;-81
2022/05/02 10:03:09;;;;;;;11.13;9.17;;;19.00;90.40;;;;;;4919550;29;20439;-81
2022/05/02 10:05:40;;;;;;;10.60;9.60;;;19.30;90.00;;;;;;4931786;29;20456;-81
2022/05/02 10:08:20;;;;;;;10.90;9.90;;;19.20;86.10;;;;;;4919634;29;20479;-81
2022/05/02 10:10:57;;;;;;;11.77;10.77;;;18.80;86.10;;;;;;4919007;29;20466;-81
2022/05/02 10:13:33;;;;;;;11.30;10.40;;;18.60;87.60;;;;;;4919471;29;20454;-82
2022/05/02 10:16:12;;;;;;;10.50;9.70;;;18.90;88.80;;;;;;4912750;29;20470;-85
2022/05/02 10:18:52;;;;;;;11.27;10.27;;;19.10;89.70;;;;;;4906897;29;20868;-84
2022/05/02 10:21:43;;;;;;;12.90;11.90;;;19.30;87.60;;;;;;4918069;29;20450;-82
2022/05/02 10:24:35;;;;;;;10.07;9.10;;;19.40;85.50;;;;;;4905052;29;20525;-82
2022/05/02 10:27:13;;;;;;;10.43;9.73;;;19.50;87.80;;;;;;4906799;29;20499;-82
2022/05/02 10:29:56;;;;;;;11.10;10.20;;;19.50;86.60;;;;;;4923630;29;20474;-82
2022/05/02 10:32:42;;;;;;;10.07;9.27;;;19.60;84.70;;;;;;4922690;29;20514;-82
2022/05/02 10:35:13;;;;;;;9.17;8.57;;;19.80;86.90;;;;;;4922574;29;20541;-82
2022/05/02 10:37:42;;;;;;;11.53;10.63;;;20.00;85.60;;;;;;4922634;29;20689;-82
2022/05/02 10:40:12;;;;;;;10.53;9.50;;;20.10;84.00;;;;;;4923115;29;20485;-82
2022/05/02 10:42:46;;;;;;;12.40;11.30;;;20.40;84.60;;;;;;4923126;29;20468;-82
2022/05/02 10:45:15;;;;;;;11.40;10.40;;;20.60;84.60;;;;;;4922029;29;20491;-82
2022/05/02 10:47:45;;;;;;;7.70;7.10;;;20.80;82.80;;;;;;4922424;29;20497;-82
2022/05/02 10:50:17;;;;;;;8.07;7.47;;;21.30;82.00;;;;;;4922008;29;20472;-82
2022/05/02 10:52:52;;;;;;;7.97;7.37;;;21.50;77.70;;;;;;4922412;29;20466;-82
2022/05/02 10:55:21;;;;;;;9.63;8.83;;;21.90;75.20;;;;;;4922407;29;20485;-82
2022/05/02 10:57:53;;;;;;;9.57;8.87;;;21.70;73.10;;;;;;4921697;29;20458;-82
2022/05/02 11:00:20;;;;;;;7.87;7.27;;;21.40;73.50;;;;;;4921592;29;20519;-84
2022/05/02 11:03:22;;;;;;;8.33;7.63;;;21.20;73.20;;;;;;4921922;29;20961;-81
2022/05/02 11:06:01;;;;;;;8.73;8.03;;;21.20;74.60;;;;;;4921996;29;20454;-81
2022/05/02 11:08:37;;;;;;;8.70;8.00;;;21.50;79.60;;;;;;4921979;29;20491;-82
2022/05/02 11:11:07;;;;;;;8.03;7.43;;;22.10;75.90;;;;;;4921483;29;20508;-82
2022/05/02 11:13:41;;;;;;;8.37;7.77;;;22.90;75.90;;;;;;4922321;29;20480;-82
2022/05/02 11:16:20;;;;;;;7.33;6.90;;;23.20;65.90;;;;;;4921899;29;20474;-82
2022/05/02 11:22:00;;;;;;;7.90;7.27;;;23.40;65.20;;;;;;4922339;29;20440;-82
2022/05/02 11:24:42;;;;;;;8.00;7.33;;;23.40;62.90;;;;;;4922583;29;20481;-81
2022/05/02 11:27:27;;;;;;;8.20;6.93;;;23.40;62.90;;;;;;4921829;29;20491;-82
2022/05/02 11:30:04;;;;;;;6.80;6.30;;;23.50;63.50;;;;;;4922833;29;20455;-82
2022/05/02 11:32:40;;;;;;;9.30;8.50;;;23.60;66.90;;;;;;4923238;29;20548;-81
2022/05/02 11:35:13;;;;;;;8.77;8.07;;;23.80;65.00;;;;;;4922297;29;20485;-82
2022/05/02 11:37:47;;;;;;;9.40;8.70;;;24.30;65.00;;;;;;4922601;29;20498;-82
2022/05/02 11:40:14;;;;;;;9.40;8.70;;;25.00;63.60;;;;;;4921527;29;20976;-82
2022/05/02 11:42:43;;;;;;;7.80;7.20;;;25.70;61.90;;;;;;4921669;29;20458;-82
2022/05/02 11:45:12;;;;;;;7.07;6.57;;;26.50;61.30;;;;;;4920995;29;20489;-82
2022/05/02 11:47:57;;;;;;;9.20;8.60;;;27.20;57.40;;;;;;4921035;29;20553;-82
2022/05/02 11:50:26;;;;;;;8.70;8.10;;;27.40;54.50;;;;;;4921707;29;20487;-82
2022/05/02 11:52:54;;;;;;;7.97;7.47;;;27.20;54.20;;;;;;4920881;29;20480;-82
2022/05/02 11:55:28;;;;;;;8.30;7.80;;;26.70;53.70;;;;;;4920990;29;20488;-82
2022/05/02 11:58:02;;;;;;;8.43;7.83;;;25.90;55.60;;;;;;4921411;29;20457;-82
2022/05/02 12:00:32;;;;;;;9.17;8.47;;;25.70;55.90;;;;;;4921828;29;20488;-81
2022/05/02 12:03:05;;;;;;;8.97;8.20;;;25.50;54.00;;;;;;4921004;29;20467;-82
2022/05/02 12:05:39;;;;;;;8.90;8.30;;;24.80;54.50;;;;;;4921112;29;20461;-82
2022/05/02 12:08:08;;;;;;;8.10;7.50;;;24.50;55.70;;;;;;4921151;29;20508;-81
2022/05/02 12:10:37;;;;;;;7.30;6.80;;;24.60;56.70;;;;;;4920256;29;20450;-81
2022/05/02 12:13:05;;;;;;;5.93;5.53;;;24.40;57.90;;;;;;4920193;29;20960;-81
2022/05/02 12:15:32;;;;;;;8.07;7.47;;;24.20;58.50;;;;;;4924884;29;20470;-82
2022/05/02 12:18:03;;;;;;;6.70;6.20;;;24.50;58.60;;;;;;4922201;29;20447;-82
2022/05/02 12:20:34;;;;;;;8.63;7.93;;;25.00;58.20;;;;;;4920529;29;20511;-82
2022/05/02 12:23:05;;;;;;;7.53;7.03;;;25.40;56.10;;;;;;4920870;29;20470;-82
2022/05/02 12:25:34;;;;;;;8.17;7.57;;;25.70;55.60;;;;;;4920010;29;20461;-83
2022/05/02 12:28:03;;;;;;;7.40;6.83;;;26.00;54.50;;;;;;4920702;29;21157;-82
2022/05/02 12:30:31;;;;;;;7.00;6.50;;;26.10;52.20;;;;;;4920182;29;20943;-82
2022/05/02 12:33:03;;;;;;;6.77;6.27;;;26.20;52.40;;;;;;4920738;29;20470;-82
2022/05/02 12:35:42;;;;;;;6.43;6.03;;;26.20;52.60;;;;;;4919877;29;20487;-83
2022/05/02 12:38:17;;;;;;;6.20;5.73;;;26.50;52.20;;;;;;4921267;29;20468;-83
2022/05/02 12:40:51;;;;;;;7.43;6.93;;;27.10;52.30;;;;;;4923825;29;20509;-83
2022/05/02 12:43:26;;;;;;;6.90;6.40;;;27.50;52.30;;;;;;4924722;29;20488;-83
2022/05/02 12:45:55;;;;;;;7.60;7.00;;;27.50;52.50;;;;;;4924314;29;20467;-83
2022/05/02 12:48:24;;;;;;;6.50;6.10;;;27.30;50.40;;;;;;4924642;29;20860;-83
2022/05/02 12:50:54;;;;;;;5.60;5.20;;;27.40;51.50;;;;;;4924433;29;20458;-83
2022/05/02 12:56:04;;;;;;;5.80;5.40;;;27.00;49.50;;;;;;4924584;29;20442;-83
2022/05/02 13:01:19;;;;;;;7.13;6.63;;;26.50;51.50;;;;;;4924436;29;20432;-83
2022/05/02 13:03:54;;;;;;;6.67;6.17;;;26.30;52.20;;;;;;4924201;29;20483;-83
2022/05/02 13:06:22;;;;;;;7.63;7.13;;;25.70;52.10;;;;;;4924221;29;20455;-82
2022/05/02 13:08:50;;;;;;;6.30;5.90;;;25.60;52.90;;;;;;4924961;29;20499;-83
2022/05/02 13:11:21;;;;;;;6.57;6.07;;;25.50;53.40;;;;;;4929337;29;20460;-82
2022/05/02 13:13:50;;;;;;;6.40;6.00;;;25.50;53.40;;;;;;4925892;29;20483;-82
2022/05/02 13:16:28;;;;;;;7.03;6.53;;;25.50;53.30;;;;;;4924355;29;20463;-82
2022/05/02 13:18:57;;;;;;;5.50;5.10;;;25.50;55.60;;;;;;4924233;29;20550;-82
2022/05/02 13:21:25;;;;;;;5.97;5.57;;;26.10;54.40;;;;;;4924617;29;20516;-82
2022/05/02 13:23:57;;;;;;;6.07;5.67;;;27.00;53.50;;;;;;4924535;29;20482;-82
2022/05/02 13:27:15;;;;;;;7.40;6.80;;;28.40;52.30;;;;;;4923546;29;20456;-82
2022/05/02 13:30:00;;;;;;;7.30;6.80;;;29.80;47.20;;;;;;4894604;29;20452;-82
2022/05/02 13:32:30;;;;;;;7.07;6.57;;;30.30;44.30;;;;;;4924289;29;20546;-82
2022/05/02 13:35:25;;;;;;;6.03;5.63;;;30.30;45.50;;;;;;4924623;29;20464;-84
2022/05/02 13:38:02;;;;;;;5.93;5.53;;;29.80;46.10;;;;;;4923748;29;20464;-83
2022/05/02 13:40:45;;;;;;;5.30;5.00;;;29.00;46.20;;;;;;4924461;29;20453;-83
2022/05/02 13:43:18;;;;;;;5.53;5.20;;;28.20;46.60;;;;;;4924529;29;20452;-83
2022/05/02 13:45:51;;;;;;;5.60;5.30;;;27.90;47.90;;;;;;4925626;29;20468;-84
2022/05/02 13:48:27;;;;;;;6.07;5.70;;;27.60;49.20;;;;;;4928769;29;21058;-86
2022/05/02 13:51:02;;;;;;;6.57;5.97;;;27.30;48.00;;;;;;4927885;29;20460;-86
2022/05/02 13:53:36;;;;;;;6.27;5.77;;;26.90;48.10;;;;;;4929064;29;20476;-86
2022/05/02 13:56:11;;;;;;;5.20;4.80;;;26.50;49.90;;;;;;4928364;29;20461;-86
2022/05/02 13:58:52;;;;;;;5.60;5.27;;;26.10;50.10;;;;;;4928066;29;20457;-86
2022/05/02 14:01:32;;;;;;;5.30;5.00;;;25.70;51.10;;;;;;4928402;29;20455;-84